Time,TemperatureF,DewpointF,PressureIn,WindDirection,WindDirectionDegrees,WindSpeedMPH,WindSpeedGustMPH,Humidity,HourlyPrecipIn,Conditions,Clouds,dailyrainin,SoftwareType,DateUTC
2013-03-01 00:11:00,44.0,28.0,-100.00,NW,322,1.0,4.0,53,-99.99,,,-99.99,,2013-03-01 08:11:00,
2013-03-01 00:22:00,44.0,28.0,-100.00,NW,322,1.0,4.0,53,-99.99,,,-99.99,,2013-03-01 08:22:00,
2013-03-01 01:11:00,42.0,28.0,-100.00,North,6,0.0,2.0,57,-99.99,,,-99.99,,2013-03-01 09:11:00,
2013-03-01 01:42:00,41.0,28.0,-100.00,North,359,2.0,3.0,59,-99.99,,,-99.99,,2013-03-01 09:42:00,
2013-03-01 01:52:00,41.0,28.0,-100.00,North,359,2.0,3.0,59,-99.99,,,-99.99,,2013-03-01 09:52:00,
2013-03-01 02:01:00,40.0,28.0,-100.00,SW,223,1.0,3.0,62,-99.99,,,-99.99,,2013-03-01 10:01:00,
2013-03-01 02:32:00,41.0,28.0,-100.00,West,265,1.0,3.0,59,-99.99,,,-99.99,,2013-03-01 10:32:00,
2013-03-01 02:52:00,41.0,28.0,-100.00,North,352,1.0,3.0,60,-99.99,,,-99.99,,2013-03-01 10:52:00,
2013-03-01 03:01:00,41.0,28.0,-100.00,North,352,1.0,3.0,60,-99.99,,,-99.99,,2013-03-01 11:01:00,
2013-03-01 03:11:00,40.0,28.0,-100.00,North,10,0.0,2.0,62,-99.99,,,-99.99,,2013-03-01 11:11:00,
2013-03-01 03:22:00,40.0,28.0,-100.00,North,10,0.0,2.0,62,-99.99,,,-99.99,,2013-03-01 11:22:00,
2013-03-01 03:32:00,41.0,28.0,-100.00,WSW,256,0.0,2.0,60,-99.99,,,-99.99,,2013-03-01 11:32:00,
2013-03-01 03:52:00,41.0,27.0,-100.00,West,268,2.0,3.0,58,-99.99,,,-99.99,,2013-03-01 11:52:00,
2013-03-01 04:11:00,41.0,27.0,-100.00,West,275,1.0,3.0,58,-99.99,,,-99.99,,2013-03-01 12:11:00,
2013-03-01 04:21:00,41.0,27.0,-100.00,West,275,1.0,3.0,58,-99.99,,,-99.99,,2013-03-01 12:21:00,
2013-03-01 04:32:00,40.0,27.0,-100.00,West,281,0.0,2.0,60,-99.99,,,-99.99,,2013-03-01 12:32:00,
2013-03-01 04:52:00,41.0,27.0,-100.00,WNW,289,0.0,1.0,59,-99.99,,,-99.99,,2013-03-01 12:52:00,
2013-03-01 05:01:00,41.0,27.0,-100.00,WNW,289,0.0,1.0,59,-99.99,,,-99.99,,2013-03-01 13:01:00,
2013-03-01 05:11:00,39.0,27.0,-100.00,NNE,20,2.0,3.0,61,-99.99,,,-99.99,,2013-03-01 13:11:00,
2013-03-01 05:21:00,39.0,27.0,-100.00,NNE,20,2.0,3.0,61,-99.99,,,-99.99,,2013-03-01 13:21:00,
2013-03-01 05:41:00,38.0,26.0,-100.00,WSW,237,1.0,3.0,62,-99.99,,,-99.99,,2013-03-01 13:41:00,
2013-03-01 05:52:00,38.0,26.0,-100.00,WSW,237,1.0,3.0,62,-99.99,,,-99.99,,2013-03-01 13:52:00,
2013-03-01 06:01:00,38.0,26.0,-100.00,WSW,237,1.0,3.0,62,-99.99,,,-99.99,,2013-03-01 14:01:00,
2013-03-01 06:11:00,37.0,26.0,-100.00,North,7,1.0,3.0,66,-99.99,,,-99.99,,2013-03-01 14:11:00,
2013-03-01 06:21:00,37.0,26.0,-100.00,NNE,25,0.0,1.0,64,-99.99,,,-99.99,,2013-03-01 14:21:00,
2013-03-01 06:32:00,37.0,26.0,-100.00,NNE,25,0.0,1.0,64,-99.99,,,-99.99,,2013-03-01 14:32:00,
2013-03-01 07:21:00,38.0,27.0,-100.00,North,-999,0.0,0.0,64,-99.99,,,-99.99,,2013-03-01 15:21:00,
2013-03-01 07:31:00,38.0,27.0,-100.00,North,-999,0.0,0.0,64,-99.99,,,-99.99,,2013-03-01 15:31:00,
2013-03-01 07:52:00,40.0,27.0,-100.00,WNW,296,0.0,0.0,59,-99.99,,,-99.99,,2013-03-01 15:52:00,
2013-03-01 08:01:00,41.0,28.0,-100.00,SSE,147,0.0,2.0,59,-99.99,,,-99.99,,2013-03-01 16:01:00,
2013-03-01 08:31:00,41.0,27.0,-100.00,ENE,69,1.0,4.0,58,-99.99,,,-99.99,,2013-03-01 16:31:00,
2013-03-01 08:52:00,44.0,28.0,-100.00,SE,137,0.0,3.0,54,-99.99,,,-99.99,,2013-03-01 16:52:00,
2013-03-01 09:11:00,46.0,28.0,-100.00,ESE,109,1.0,3.0,50,-99.99,,,-99.99,,2013-03-01 17:11:00,
2013-03-01 09:21:00,46.0,28.0,-100.00,ESE,109,1.0,3.0,50,-99.99,,,-99.99,,2013-03-01 17:21:00,
2013-03-01 09:31:00,47.0,28.0,-100.00,ESE,121,2.0,5.0,48,-99.99,,,-99.99,,2013-03-01 17:31:00,
2013-03-01 09:52:00,47.0,28.0,-100.00,SE,136,3.0,6.0,47,-99.99,,,-99.99,,2013-03-01 17:52:00,
2013-03-01 10:01:00,48.0,29.0,-100.00,SE,134,3.0,7.0,48,-99.99,,,-99.99,,2013-03-01 18:01:00,
2013-03-01 10:12:00,48.0,28.0,-100.00,ESE,102,2.0,6.0,46,-99.99,,,-99.99,,2013-03-01 18:12:00,
2013-03-01 10:22:00,48.0,29.0,-100.00,SE,130,3.0,7.0,47,-99.99,,,-99.99,,2013-03-01 18:22:00,
2013-03-01 10:31:00,48.0,29.0,-100.00,SE,137,3.0,6.0,47,-99.99,,,-99.99,,2013-03-01 18:31:00,
2013-03-01 10:41:00,49.0,29.0,-100.00,SSE,167,3.0,6.0,46,-99.99,,,-99.99,,2013-03-01 18:41:00,
2013-03-01 10:52:00,49.0,29.0,-100.00,SSE,167,3.0,6.0,46,-99.99,,,-99.99,,2013-03-01 18:52:00,
2013-03-01 11:11:00,50.0,27.0,-100.00,SE,130,1.0,6.0,40,-99.99,,,-99.99,,2013-03-01 19:11:00,
2013-03-01 11:21:00,50.0,27.0,-100.00,SE,130,1.0,6.0,40,-99.99,,,-99.99,,2013-03-01 19:21:00,
2013-03-01 11:31:00,51.0,27.0,-100.00,SW,224,2.0,7.0,39,-99.99,,,-99.99,,2013-03-01 19:31:00,
2013-03-01 11:42:00,52.0,25.0,-100.00,SSE,165,3.0,8.0,34,-99.99,,,-99.99,,2013-03-01 19:42:00,
2013-03-01 11:51:00,52.0,25.0,-100.00,SSE,165,3.0,8.0,34,-99.99,,,-99.99,,2013-03-01 19:51:00,
2013-03-01 12:01:00,52.0,25.0,-100.00,SSE,165,3.0,8.0,34,-99.99,,,-99.99,,2013-03-01 20:01:00,
2013-03-01 12:11:00,52.0,24.0,-100.00,SSE,168,4.0,9.0,34,-99.99,,,-99.99,,2013-03-01 20:11:00,
2013-03-01 12:21:00,52.0,24.0,-100.00,SSE,168,4.0,9.0,34,-99.99,,,-99.99,,2013-03-01 20:21:00,
2013-03-01 13:01:00,56.0,23.0,-100.00,South,178,3.0,11.0,28,-99.99,,,-99.99,,2013-03-01 21:01:00,
2013-03-01 13:11:00,56.0,23.0,-100.00,SSW,212,2.0,11.0,28,-99.99,,,-99.99,,2013-03-01 21:11:00,
2013-03-01 13:21:00,55.0,23.0,-100.00,SSE,147,5.0,11.0,28,-99.99,,,-99.99,,2013-03-01 21:21:00,
2013-03-01 13:31:00,55.0,23.0,-100.00,SSE,147,5.0,11.0,28,-99.99,,,-99.99,,2013-03-01 21:31:00,
2013-03-01 13:41:00,57.0,23.0,-100.00,WSW,247,3.0,9.0,27,-99.99,,,-99.99,,2013-03-01 21:41:00,
2013-03-01 13:52:00,57.0,23.0,-100.00,WSW,247,3.0,9.0,27,-99.99,,,-99.99,,2013-03-01 21:52:00,
2013-03-01 14:01:00,57.0,23.0,-100.00,South,175,4.0,8.0,27,-99.99,,,-99.99,,2013-03-01 22:01:00,
2013-03-01 14:11:00,58.0,23.0,-100.00,South,189,4.0,8.0,26,-99.99,,,-99.99,,2013-03-01 22:11:00,
2013-03-01 14:21:00,59.0,24.0,-100.00,SSE,160,3.0,8.0,26,-99.99,,,-99.99,,2013-03-01 22:21:00,
2013-03-01 14:31:00,59.0,24.0,-100.00,SSE,160,3.0,8.0,26,-99.99,,,-99.99,,2013-03-01 22:31:00,
2013-03-01 14:41:00,59.0,25.0,-100.00,SE,141,3.0,8.0,27,-99.99,,,-99.99,,2013-03-01 22:41:00,
2013-03-01 14:52:00,59.0,25.0,-100.00,SSE,152,3.0,8.0,27,-99.99,,,-99.99,,2013-03-01 22:52:00,
2013-03-01 15:01:00,59.0,22.0,-100.00,ENE,65,4.0,9.0,24,-99.99,,,-99.99,,2013-03-01 23:01:00,
2013-03-01 15:11:00,59.0,22.0,-100.00,ENE,65,4.0,9.0,24,-99.99,,,-99.99,,2013-03-01 23:11:00,
2013-03-01 15:21:00,61.0,27.0,-100.00,East,85,4.0,9.0,27,-99.99,,,-99.99,,2013-03-01 23:21:00,
2013-03-01 15:31:00,61.0,27.0,-100.00,East,85,4.0,9.0,27,-99.99,,,-99.99,,2013-03-01 23:31:00,
2013-03-01 15:41:00,58.0,26.0,-100.00,NE,47,5.0,11.0,29,-99.99,,,-99.99,,2013-03-01 23:41:00,
2013-03-01 15:52:00,58.0,26.0,-100.00,NE,47,5.0,11.0,29,-99.99,,,-99.99,,2013-03-01 23:52:00,
2013-03-01 16:01:00,58.0,26.0,-100.00,NE,47,5.0,11.0,29,-99.99,,,-99.99,,2013-03-02 00:01:00,
2013-03-01 16:11:00,58.0,25.0,-100.00,NE,54,6.0,10.0,28,-99.99,,,-99.99,,2013-03-02 00:11:00,
2013-03-01 16:21:00,58.0,25.0,-100.00,NE,54,6.0,10.0,28,-99.99,,,-99.99,,2013-03-02 00:21:00,
2013-03-01 16:31:00,58.0,24.0,-100.00,NNE,24,5.0,10.0,27,-99.99,,,-99.99,,2013-03-02 00:31:00,
2013-03-01 16:42:00,58.0,24.0,-100.00,NNE,24,5.0,10.0,27,-99.99,,,-99.99,,2013-03-02 00:42:00,
2013-03-01 16:52:00,58.0,24.0,-100.00,North,360,6.0,10.0,27,-99.99,,,-99.99,,2013-03-02 00:52:00,
2013-03-01 17:01:00,58.0,24.0,-100.00,North,360,6.0,10.0,27,-99.99,,,-99.99,,2013-03-02 01:01:00,
2013-03-01 17:11:00,57.0,24.0,-100.00,North,353,6.0,10.0,28,-99.99,,,-99.99,,2013-03-02 01:11:00,
2013-03-01 17:21:00,57.0,24.0,-100.00,North,353,6.0,10.0,28,-99.99,,,-99.99,,2013-03-02 01:21:00,
2013-03-01 17:31:00,56.0,24.0,-100.00,North,352,5.0,9.0,29,-99.99,,,-99.99,,2013-03-02 01:31:00,
2013-03-01 17:41:00,56.0,24.0,-100.00,North,352,5.0,9.0,29,-99.99,,,-99.99,,2013-03-02 01:41:00,
2013-03-01 17:51:00,56.0,25.0,-100.00,North,350,5.0,9.0,30,-99.99,,,-99.99,,2013-03-02 01:51:00,
2013-03-01 18:01:00,56.0,25.0,-100.00,North,350,5.0,9.0,30,-99.99,,,-99.99,,2013-03-02 02:01:00,
2013-03-01 18:11:00,54.0,24.0,-100.00,North,349,6.0,8.0,31,-99.99,,,-99.99,,2013-03-02 02:11:00,
2013-03-01 18:21:00,54.0,24.0,-100.00,North,349,6.0,8.0,31,-99.99,,,-99.99,,2013-03-02 02:21:00,
2013-03-01 18:32:00,53.0,24.0,-100.00,NNW,346,5.0,11.0,32,-99.99,,,-99.99,,2013-03-02 02:32:00,
2013-03-01 18:41:00,53.0,24.0,-100.00,NNW,346,5.0,11.0,32,-99.99,,,-99.99,,2013-03-02 02:41:00,
2013-03-01 18:52:00,53.0,24.0,-100.00,NNW,343,5.0,11.0,32,-99.99,,,-99.99,,2013-03-02 02:52:00,
2013-03-01 19:01:00,53.0,24.0,-100.00,NNW,343,5.0,11.0,32,-99.99,,,-99.99,,2013-03-02 03:01:00,
2013-03-01 19:42:00,52.0,23.0,-100.00,North,1,8.0,13.0,32,-99.99,,,-99.99,,2013-03-02 03:42:00,
2013-03-01 19:52:00,52.0,23.0,-100.00,North,1,8.0,13.0,32,-99.99,,,-99.99,,2013-03-02 03:52:00,
2013-03-01 20:01:00,51.0,23.0,-100.00,North,349,6.0,12.0,33,-99.99,,,-99.99,,2013-03-02 04:01:00,
2013-03-01 20:21:00,51.0,24.0,-100.00,North,353,7.0,12.0,34,-99.99,,,-99.99,,2013-03-02 04:21:00,
2013-03-01 20:32:00,51.0,24.0,-100.00,North,353,7.0,12.0,34,-99.99,,,-99.99,,2013-03-02 04:32:00,
2013-03-01 21:01:00,51.0,24.0,-100.00,NNE,20,4.0,9.0,34,-99.99,,,-99.99,,2013-03-02 05:01:00,
2013-03-01 21:22:00,50.0,24.0,-100.00,NNE,27,3.0,9.0,36,-99.99,,,-99.99,,2013-03-02 05:22:00,
2013-03-01 21:31:00,50.0,24.0,-100.00,NNE,27,3.0,9.0,36,-99.99,,,-99.99,,2013-03-02 05:31:00,
2013-03-01 21:41:00,50.0,24.0,-100.00,North,359,6.0,12.0,36,-99.99,,,-99.99,,2013-03-02 05:41:00,
2013-03-01 21:52:00,50.0,24.0,-100.00,North,359,6.0,12.0,36,-99.99,,,-99.99,,2013-03-02 05:52:00,
2013-03-01 22:01:00,48.0,25.0,-100.00,NE,49,1.0,4.0,40,-99.99,,,-99.99,,2013-03-02 06:01:00,
2013-03-01 22:31:00,47.0,24.0,-100.00,SW,223,2.0,4.0,40,-99.99,,,-99.99,,2013-03-02 06:31:00,
2013-03-01 22:51:00,48.0,24.0,-100.00,West,277,1.0,3.0,38,-99.99,,,-99.99,,2013-03-02 06:51:00,
2013-03-01 23:01:00,48.0,24.0,-100.00,West,277,1.0,3.0,38,-99.99,,,-99.99,,2013-03-02 07:01:00,
2013-03-01 23:11:00,47.0,25.0,-100.00,NW,322,2.0,4.0,41,-99.99,,,-99.99,,2013-03-02 07:11:00,
2013-03-01 23:21:00,47.0,25.0,-100.00,NW,322,2.0,4.0,41,-99.99,,,-99.99,,2013-03-02 07:21:00,
2013-03-01 23:32:00,46.0,25.0,-100.00,North,353,5.0,7.0,43,-99.99,,,-99.99,,2013-03-02 07:32:00,
2013-03-01 23:51:00,46.0,25.0,-100.00,SW,223,0.0,2.0,44,-99.99,,,-99.99,,2013-03-02 07:51:00,